Terminal Aerodrome Forecast
Issued by NWS

Home | Current Version | Previous Version | Text Only | Print | Product List | Glossary On
Versions: 1 2 3 4 5 6 7 8 9 10 11 12 13 14 15 16 17
000
FTUS45 KLKN 251720
TAFELY
TAF
KELY 251720Z 2518/2618 VRB06KT P6SM VCSH SCT060 BKN090
     FM252100 VRB06KT P6SM -SHRA VCTS BKN050CB BKN080
     FM260500 33006KT P6SM -SHRA BKN050 BKN080=

USA.gov is the U.S. government's official web portal to all federal, state and local government web resources and services.